createdAt,value
2019-01-16T00:00:31.600Z,100251.86
2019-01-16T00:03:16.895Z,100251.69
2019-01-16T00:06:03.048Z,100242.73
2019-01-16T00:08:51.285Z,100249.53
2019-01-16T00:11:30.412Z,100249.86
2019-01-16T00:14:09.313Z,100242.39
2019-01-16T00:16:41.924Z,100244.09
2019-01-16T00:19:12.311Z,100240.59
2019-01-16T00:21:54.492Z,100250.02
2019-01-16T00:24:27.672Z,100245.41
2019-01-16T00:27:12.773Z,100254.67
2019-01-16T00:30:00.555Z,100253.02
2019-01-16T00:32:36.573Z,100250.03
2019-01-16T00:35:07.811Z,100251.36
2019-01-16T00:37:44.315Z,100242.58
2019-01-16T00:40:21.528Z,100254.68
2019-01-16T00:42:54.728Z,100256.01
2019-01-16T00:45:27.885Z,100263.96
2019-01-16T00:48:06.838Z,100251.38
2019-01-16T00:50:37.345Z,100257.32
2019-01-16T00:53:23.462Z,100281.86
2019-01-16T00:56:09.620Z,100271.92
2019-01-16T00:58:39.869Z,100263.98
2019-01-16T01:01:13.077Z,100271.58
2019-01-16T01:03:46.388Z,100276.57
2019-01-16T01:06:25.762Z,100278.70
2019-01-16T01:08:55.954Z,100274.23
2019-01-16T01:11:26.083Z,100293.47
2019-01-16T01:14:01.912Z,100276.57
2019-01-16T01:16:43.448Z,100289.98
2019-01-16T01:19:13.696Z,100301.75
2019-01-16T01:21:49.477Z,100295.80
2019-01-16T01:24:25.425Z,100298.63
2019-01-16T01:26:55.639Z,100302.77
2019-01-16T01:29:25.734Z,100307.08
2019-01-16T01:31:58.939Z,100310.73
2019-01-16T01:34:29.347Z,100314.86
2019-01-16T01:36:59.550Z,100315.36
2019-01-16T01:39:45.324Z,100316.67
2019-01-16T01:42:33.693Z,100314.69
2019-01-16T01:45:19.071Z,100308.55
2019-01-16T01:48:05.079Z,100327.63
2019-01-16T01:50:43.693Z,100324.64
2019-01-16T01:53:13.957Z,100328.12
2019-01-16T01:55:44.570Z,100323.31
2019-01-16T01:58:23.442Z,100325.83
2019-01-16T02:01:05.534Z,100319.84
2019-01-16T02:03:44.661Z,100332.61
2019-01-16T02:06:17.653Z,100332.12
2019-01-16T02:08:47.946Z,100341.06
2019-01-16T02:11:30.291Z,100344.72
2019-01-16T02:14:06.356Z,100337.89
2019-01-16T02:16:48.456Z,100347.53
2019-01-16T02:19:27.189Z,100345.53
2019-01-16T02:22:00.450Z,100354.66
2019-01-16T02:24:36.301Z,100361.77
2019-01-16T02:27:09.363Z,100361.44
2019-01-16T02:29:39.477Z,100362.94
2019-01-16T02:32:27.502Z,100370.41
2019-01-16T02:35:13.748Z,100375.72
2019-01-16T02:37:44.007Z,100366.75
2019-01-16T02:40:20.420Z,100364.78
2019-01-16T02:43:02.684Z,100372.73
2019-01-16T02:45:32.970Z,100372.55
2019-01-16T02:48:03.020Z,100366.73
2019-01-16T02:50:36.330Z,100371.88
2019-01-16T02:53:15.562Z,100370.41
2019-01-16T02:55:48.083Z,100377.69
2019-01-16T02:58:21.311Z,100378.52
2019-01-16T03:00:57.477Z,100388.27
2019-01-16T03:03:43.623Z,100375.50
2019-01-16T03:06:19.562Z,100381.64
2019-01-16T03:08:49.859Z,100375.34
2019-01-16T03:11:25.570Z,100391.73
2019-01-16T03:13:58.791Z,100387.60
2019-01-16T03:16:43.871Z,100380.30
2019-01-16T03:19:16.807Z,100380.32
2019-01-16T03:21:58.618Z,100391.58
2019-01-16T03:24:28.858Z,100384.45
2019-01-16T03:27:13.981Z,100386.25
2019-01-16T03:29:44.223Z,100390.72
2019-01-16T03:32:14.364Z,100390.53
2019-01-16T03:34:47.599Z,100387.55
2019-01-16T03:37:18.085Z,100385.75
2019-01-16T03:39:48.280Z,100391.21
2019-01-16T03:42:27.322Z,100387.55
2019-01-16T03:44:57.413Z,100383.75
2019-01-16T03:47:30.421Z,100382.92
2019-01-16T03:50:00.541Z,100385.05
2019-01-16T03:52:39.613Z,100385.23
2019-01-16T03:55:15.598Z,100377.77
2019-01-16T03:58:03.719Z,100382.58
2019-01-16T04:00:42.654Z,100384.06
2019-01-16T04:03:28.865Z,100384.73
2019-01-16T04:06:16.976Z,100386.22
2019-01-16T04:08:53.020Z,100374.59
2019-01-16T04:11:39.102Z,100368.63
2019-01-16T04:14:23.912Z,100370.13
2019-01-16T04:16:54.142Z,100362.67
2019-01-16T04:19:35.893Z,100369.64
2019-01-16T04:22:22.379Z,100368.66
2019-01-16T04:25:04.557Z,100373.27
2019-01-16T04:27:50.901Z,100363.16
2019-01-16T04:30:21.161Z,100359.69
2019-01-16T04:32:51.580Z,100354.38
2019-01-16T04:35:37.973Z,100361.34
2019-01-16T04:38:08.158Z,100357.22
2019-01-16T04:40:41.079Z,100361.04
2019-01-16T04:43:14.125Z,100359.03
2019-01-16T04:45:44.239Z,100358.05
2019-01-16T04:48:23.058Z,100356.54
2019-01-16T04:51:07.848Z,100361.20
2019-01-16T04:53:38.070Z,100355.73
2019-01-16T04:56:17.336Z,100355.06
2019-01-16T04:58:59.379Z,100353.39
2019-01-16T05:01:29.573Z,100349.76
2019-01-16T05:04:15.889Z,100341.49
2019-01-16T05:06:52.344Z,100341.80
2019-01-16T05:09:28.138Z,100347.11
2019-01-16T05:12:15.921Z,100343.96
2019-01-16T05:14:46.164Z,100337.67
2019-01-16T05:17:28.288Z,100343.78
2019-01-16T05:20:04.180Z,100339.50
2019-01-16T05:22:49.661Z,100345.29
2019-01-16T05:25:25.869Z,100352.75
2019-01-16T05:27:58.985Z,100352.07
2019-01-16T05:30:35.247Z,100347.11
2019-01-16T05:33:17.251Z,100346.62
2019-01-16T05:35:59.332Z,100351.77
2019-01-16T05:38:29.506Z,100354.91
2019-01-16T05:41:14.609Z,100364.00
2019-01-16T05:43:44.838Z,100364.34
2019-01-16T05:46:21.096Z,100365.02
2019-01-16T05:49:07.293Z,100365.02
2019-01-16T05:51:40.234Z,100369.66
2019-01-16T05:54:13.192Z,100359.37
2019-01-16T05:56:59.604Z,100358.20
2019-01-16T05:59:35.581Z,100356.56
2019-01-16T06:02:11.671Z,100352.93
2019-01-16T06:04:53.696Z,100364.36
2019-01-16T06:07:40.151Z,100362.67
2019-01-16T06:10:19.170Z,100370.80
2019-01-16T06:12:55.397Z,100370.96
2019-01-16T06:15:31.611Z,100369.30
2019-01-16T06:18:04.575Z,100358.55
2019-01-16T06:20:40.800Z,100360.05
2019-01-16T06:23:13.883Z,100357.37
2019-01-16T06:25:59.957Z,100360.36
2019-01-16T06:28:30.147Z,100364.34
2019-01-16T06:31:06.630Z,100365.33
2019-01-16T06:33:39.599Z,100366.84
2019-01-16T06:36:12.557Z,100366.98
2019-01-16T06:38:58.898Z,100370.62
2019-01-16T06:41:29.075Z,100363.32
2019-01-16T06:44:08.042Z,100363.97
2019-01-16T06:46:38.138Z,100368.12
2019-01-16T06:49:08.481Z,100365.30
2019-01-16T06:51:41.191Z,100369.61
2019-01-16T06:54:20.471Z,100368.96
2019-01-16T06:57:08.545Z,100371.77
2019-01-16T06:59:41.565Z,100376.27
2019-01-16T07:02:28.126Z,100372.44
2019-01-16T07:05:14.601Z,100375.55
2019-01-16T07:07:47.595Z,100379.19
2019-01-16T07:10:20.452Z,100379.22
2019-01-16T07:12:56.559Z,100370.93
2019-01-16T07:15:26.767Z,100377.22
2019-01-16T07:18:12.982Z,100381.50
2019-01-16T07:20:45.619Z,100379.83
2019-01-16T07:23:15.715Z,100380.78
2019-01-16T07:25:49.058Z,100382.11
2019-01-16T07:28:34.035Z,100386.42
2019-01-16T07:31:13.087Z,100377.64
2019-01-16T07:33:45.981Z,100382.63
2019-01-16T07:36:16.213Z,100379.83
2019-01-16T07:38:49.082Z,100382.78
2019-01-16T07:41:19.208Z,100389.94
2019-01-16T07:44:05.059Z,100383.80
2019-01-16T07:46:50.896Z,100385.13
2019-01-16T07:49:23.792Z,100383.63
2019-01-16T07:52:06.122Z,100384.64
2019-01-16T07:54:52.762Z,100384.30
2019-01-16T07:57:38.817Z,100386.12
2019-01-16T08:00:27.731Z,100381.50
2019-01-16T08:03:11.848Z,100378.17
2019-01-16T08:05:59.676Z,100380.36
2019-01-16T08:08:29.822Z,100383.13
2019-01-16T08:11:03.155Z,100384.83
2019-01-16T08:13:33.389Z,100380.52
2019-01-16T08:16:20.985Z,100383.16
2019-01-16T08:19:06.070Z,100384.15
2019-01-16T08:21:52.471Z,100380.89
2019-01-16T08:24:22.803Z,100378.55
2019-01-16T08:26:55.987Z,100376.42
2019-01-16T08:29:35.170Z,100375.25
2019-01-16T08:32:11.746Z,100378.55
2019-01-16T08:34:42.150Z,100380.39
2019-01-16T08:37:15.241Z,100374.94
2019-01-16T08:39:45.434Z,100382.02
2019-01-16T08:42:21.517Z,100383.57
2019-01-16T08:44:51.733Z,100376.60
2019-01-16T08:47:24.949Z,100377.93
2019-01-16T08:50:00.940Z,100376.42
2019-01-16T08:52:31.031Z,100382.55
2019-01-16T08:55:13.215Z,100381.07
2019-01-16T08:57:49.354Z,100377.93
2019-01-16T09:00:19.657Z,100382.39
2019-01-16T09:03:06.481Z,100380.42
2019-01-16T09:05:54.826Z,100378.61
2019-01-16T09:08:27.360Z,100379.59
2019-01-16T09:11:05.325Z,100378.45
2019-01-16T09:13:35.578Z,100381.59
2019-01-16T09:16:21.045Z,100378.95
2019-01-16T09:18:51.248Z,100380.61
2019-01-16T09:21:27.310Z,100378.27
2019-01-16T09:24:06.297Z,100372.97
2019-01-16T09:26:45.393Z,100378.11
2019-01-16T09:29:18.198Z,100381.56
2019-01-16T09:32:04.386Z,100381.94
2019-01-16T09:34:40.332Z,100383.91
2019-01-16T09:37:10.575Z,100375.80
2019-01-16T09:39:55.378Z,100376.63
2019-01-16T09:42:41.835Z,100384.73
2019-01-16T09:45:17.752Z,100370.83
2019-01-16T09:47:50.782Z,100374.50
2019-01-16T09:50:21.095Z,100371.33
2019-01-16T09:52:51.335Z,100368.52
2019-01-16T09:55:37.763Z,100372.50
2019-01-16T09:58:13.558Z,100368.03
2019-01-16T10:00:46.739Z,100373.48
2019-01-16T10:03:25.415Z,100372.31
2019-01-16T10:06:04.555Z,100366.64
2019-01-16T10:08:37.436Z,100366.64
2019-01-16T10:11:07.631Z,100362.02
2019-01-16T10:13:37.922Z,100357.38
2019-01-16T10:16:14.399Z,100361.69
2019-01-16T10:18:44.613Z,100354.88
2019-01-16T10:21:15.205Z,100356.72
2019-01-16T10:23:48.712Z,100359.03
2019-01-16T10:26:18.974Z,100354.72
2019-01-16T10:28:55.000Z,100346.80
2019-01-16T10:31:30.786Z,100343.81
2019-01-16T10:34:15.944Z,100343.62
2019-01-16T10:36:58.280Z,100340.63
2019-01-16T10:39:31.483Z,100330.55
2019-01-16T10:42:13.584Z,100331.05
2019-01-16T10:44:49.868Z,100334.01
2019-01-16T10:47:32.103Z,100330.55
2019-01-16T10:50:08.060Z,100320.29
2019-01-16T10:52:46.919Z,100314.49
2019-01-16T10:55:29.039Z,100316.98
2019-01-16T10:58:15.130Z,100313.31
2019-01-16T11:00:51.112Z,100315.33
2019-01-16T11:03:24.133Z,100307.38
2019-01-16T11:05:54.234Z,100310.02
2019-01-16T11:08:33.439Z,100300.06
2019-01-16T11:11:19.566Z,100305.36
2019-01-16T11:13:52.531Z,100305.37
2019-01-16T11:16:38.833Z,100298.09
2019-01-16T11:19:14.851Z,100291.62
2019-01-16T11:21:45.056Z,100289.14
2019-01-16T11:24:15.480Z,100284.51
2019-01-16T11:26:48.567Z,100282.84
2019-01-16T11:29:24.755Z,100277.56
2019-01-16T11:32:10.805Z,100277.89
2019-01-16T11:34:40.998Z,100274.56
2019-01-16T11:37:11.291Z,100263.31
2019-01-16T11:39:44.230Z,100263.98
2019-01-16T11:42:17.066Z,100274.57
2019-01-16T11:45:03.451Z,100262.00
2019-01-16T11:47:33.881Z,100266.63
2019-01-16T11:50:12.470Z,100260.50
2019-01-16T11:52:42.793Z,100259.81
2019-01-16T11:55:18.957Z,100258.50
2019-01-16T11:58:05.291Z,100257.35
2019-01-16T12:00:57.478Z,100260.31
2019-01-16T12:03:33.691Z,100256.34
2019-01-16T12:06:20.107Z,100254.34
2019-01-16T12:09:06.361Z,100252.39
2019-01-16T12:11:51.591Z,100246.23
2019-01-16T12:14:24.739Z,100237.45
2019-01-16T12:17:03.601Z,100231.81
2019-01-16T12:19:34.273Z,100228.16
2019-01-16T12:22:04.555Z,100222.87
2019-01-16T12:24:34.780Z,100224.51
2019-01-16T12:27:22.854Z,100221.52
2019-01-16T12:29:55.757Z,100220.52
2019-01-16T12:32:31.688Z,100221.34
2019-01-16T12:35:18.111Z,100212.23
2019-01-16T12:38:04.237Z,100205.58
2019-01-16T12:40:34.474Z,100208.09
2019-01-16T12:43:16.891Z,100197.32
2019-01-16T12:45:47.112Z,100202.63
2019-01-16T12:48:17.204Z,100195.66
2019-01-16T12:50:50.101Z,100196.83
2019-01-16T12:53:26.182Z,100192.01
2019-01-16T12:55:56.338Z,100189.37
2019-01-16T12:58:42.534Z,100201.31
2019-01-16T13:01:12.680Z,100186.72
2019-01-16T13:03:43.205Z,100192.17
2019-01-16T13:06:19.640Z,100182.05
2019-01-16T13:09:04.759Z,100189.02
2019-01-16T13:11:34.959Z,100172.81
2019-01-16T13:14:08.460Z,100176.44
2019-01-16T13:16:54.571Z,100173.27
2019-01-16T13:19:36.312Z,100172.13
2019-01-16T13:22:22.792Z,100167.16
2019-01-16T13:24:53.292Z,100164.52
2019-01-16T13:27:26.338Z,100167.81
2019-01-16T13:30:16.823Z,100162.36
2019-01-16T13:33:14.355Z,100159.53
2019-01-16T13:35:54.933Z,100156.20
2019-01-16T13:38:25.227Z,100158.20
2019-01-16T13:40:55.363Z,100150.91
2019-01-16T13:43:25.526Z,100148.06
2019-01-16T13:46:07.501Z,100138.62
2019-01-16T13:48:52.570Z,100147.58
2019-01-16T13:51:27.588Z,100142.93
2019-01-16T13:53:57.778Z,100143.28
2019-01-16T13:56:53.124Z,100139.61
2019-01-16T13:59:26.763Z,100140.96
2019-01-16T14:01:57.187Z,100139.61
2019-01-16T14:04:33.323Z,100134.99
2019-01-16T14:07:15.496Z,100129.55
2019-01-16T14:09:51.627Z,100129.05
2019-01-16T14:12:27.803Z,100119.09
2019-01-16T14:14:58.247Z,100115.59
2019-01-16T14:17:40.403Z,100122.42
2019-01-16T14:20:13.618Z,100122.06
2019-01-16T14:22:52.524Z,100123.39
2019-01-16T14:25:24.847Z,100108.13
2019-01-16T14:28:03.757Z,100106.14
2019-01-16T14:30:43.053Z,100113.44
2019-01-16T14:36:21.727Z,100109.46
2019-01-16T14:39:07.802Z,100115.79
2019-01-16T14:41:54.080Z,100103.35
2019-01-16T14:44:33.007Z,100111.30
2019-01-16T14:47:20.851Z,100115.13
2019-01-16T14:49:56.846Z,100099.52
2019-01-16T14:52:32.425Z,100105.67
2019-01-16T14:55:06.003Z,100113.46
2019-01-16T14:57:34.527Z,100109.17
2019-01-16T15:00:10.599Z,100104.70
2019-01-16T15:02:57.027Z,100107.53
2019-01-16T15:05:29.980Z,100102.23
2019-01-16T15:08:15.082Z,100092.80
2019-01-16T15:10:57.115Z,100090.80
2019-01-16T15:13:30.255Z,100081.03
2019-01-16T15:16:00.372Z,100087.50
2019-01-16T15:21:06.730Z,100084.52
2019-01-16T15:21:56.660Z,100074.91
2019-01-16T15:24:32.909Z,100079.04
2019-01-16T15:27:12.011Z,100091.95
2019-01-16T15:29:51.583Z,100087.64
2019-01-16T15:32:33.873Z,100081.03
2019-01-16T15:35:04.120Z,100080.36
2019-01-16T15:37:34.269Z,100081.03
2019-01-16T15:40:04.787Z,100072.41
2019-01-16T15:42:35.419Z,100072.08
2019-01-16T15:45:06.285Z,100075.89
2019-01-16T15:47:56.444Z,100073.73
2019-01-16T15:50:42.856Z,100070.27
2019-01-16T15:53:13.143Z,100068.78
2019-01-16T15:55:52.639Z,100066.64
2019-01-16T15:58:25.564Z,100064.47
2019-01-16T16:01:01.498Z,100070.77
2019-01-16T16:03:37.086Z,100057.21
2019-01-16T16:06:07.148Z,100049.73
2019-01-16T16:08:40.344Z,100054.23
2019-01-16T16:11:13.613Z,100058.20
2019-01-16T16:13:52.639Z,100052.06
2019-01-16T16:16:22.829Z,100054.58
2019-01-16T16:19:11.035Z,100050.58
2019-01-16T16:21:41.141Z,100041.30
2019-01-16T16:24:17.073Z,100037.34
2019-01-16T16:26:47.198Z,100031.69
2019-01-16T16:29:26.439Z,100027.41
2019-01-16T16:32:02.071Z,100032.70
2019-01-16T16:34:48.537Z,100032.38
2019-01-16T16:37:34.940Z,100024.94
2019-01-16T16:40:21.983Z,100034.03
2019-01-16T16:42:52.951Z,100025.93
2019-01-16T16:45:41.043Z,100011.19
2019-01-16T16:48:25.962Z,100021.62
2019-01-16T16:51:17.888Z,100018.80
2019-01-16T16:54:04.130Z,100007.88
2019-01-16T16:56:52.253Z,100015.50
2019-01-16T16:59:22.448Z,100009.36
2019-01-16T17:01:52.631Z,100009.86
2019-01-16T17:04:31.425Z,100006.41
2019-01-16T17:07:17.367Z,100012.38
2019-01-16T17:09:50.556Z,100013.19
2019-01-16T17:12:32.632Z,100006.23
2019-01-16T17:15:08.518Z,99989.52
2019-01-16T17:17:54.991Z,99997.27
2019-01-16T17:20:39.934Z,100002.26
2019-01-16T17:23:12.657Z,99998.64
2019-01-16T17:25:54.948Z,100002.94
2019-01-16T17:28:34.490Z,100011.20
2019-01-16T17:31:07.345Z,100007.92
2019-01-16T17:33:40.448Z,99992.67
2019-01-16T17:36:10.542Z,99989.85
2019-01-16T17:38:43.781Z,99996.00
2019-01-16T17:41:29.904Z,99985.07
2019-01-16T17:44:00.082Z,100004.59
2019-01-16T17:46:42.152Z,99978.94
2019-01-16T17:49:12.420Z,99981.11
2019-01-16T17:51:48.734Z,99971.81
2019-01-16T17:54:21.831Z,99985.73
2019-01-16T17:57:00.969Z,99987.38
2019-01-16T17:59:37.081Z,99977.14
2019-01-16T18:02:22.198Z,99973.32
2019-01-16T18:04:55.399Z,99977.14
2019-01-16T18:07:25.630Z,99963.05
2019-01-16T18:10:07.712Z,99946.86
2019-01-16T18:12:40.828Z,99953.64
2019-01-16T18:15:27.721Z,99959.26
2019-01-16T18:18:18.935Z,99942.72
2019-01-16T18:23:53.367Z,99943.39
2019-01-16T18:26:36.000Z,99948.34
2019-01-16T18:29:09.133Z,99949.33
2019-01-16T18:31:48.810Z,99951.65
2019-01-16T18:34:19.144Z,99946.67
2019-01-16T18:36:58.396Z,99949.66
2019-01-16T18:39:36.356Z,99942.41
2019-01-16T18:42:16.858Z,99939.60
2019-01-16T18:44:47.266Z,99931.14
2019-01-16T18:47:20.129Z,99925.19
2019-01-16T18:50:08.285Z,99918.72
2019-01-16T18:52:56.491Z,99926.81
2019-01-16T18:55:26.678Z,99923.86
2019-01-16T18:57:59.569Z,99920.23
2019-01-16T19:00:29.723Z,99921.56
2019-01-16T19:03:05.679Z,99913.62
2019-01-16T19:05:41.905Z,99915.58
2019-01-16T19:08:27.756Z,99913.28
2019-01-16T19:10:58.311Z,99901.02
2019-01-16T19:13:31.229Z,99896.72
2019-01-16T19:16:01.480Z,99892.77
2019-01-16T19:18:31.668Z,99908.97
2019-01-16T19:21:01.846Z,99895.41
2019-01-16T19:23:44.250Z,99895.26
2019-01-16T19:26:17.457Z,99893.10
2019-01-16T19:29:02.557Z,99895.73
2019-01-16T19:31:36.098Z,99895.73
2019-01-16T19:34:12.274Z,99886.47
2019-01-16T19:36:45.389Z,99876.38
2019-01-16T19:39:15.663Z,99871.27
2019-01-16T19:42:00.900Z,99865.16
2019-01-16T19:44:33.877Z,99863.83
2019-01-16T19:47:04.942Z,99867.30
2019-01-16T19:49:40.721Z,99867.30
2019-01-16T19:52:11.257Z,99859.19
2019-01-16T19:54:57.634Z,99874.91
2019-01-16T19:57:43.873Z,99873.06
2019-01-16T20:00:33.180Z,99860.69
2019-01-16T20:03:03.358Z,99860.84
2019-01-16T20:05:41.144Z,99855.41
2019-01-16T20:08:16.740Z,99839.20
2019-01-16T20:10:46.999Z,99851.43
2019-01-16T20:13:48.015Z,99836.90
2019-01-16T20:16:20.970Z,99833.23
2019-01-16T20:19:00.050Z,99831.09
2019-01-16T20:21:30.378Z,99822.15
2019-01-16T20:24:13.852Z,99815.72
2019-01-16T20:26:50.737Z,99810.11
2019-01-16T20:29:21.007Z,99799.20
2019-01-16T20:31:54.289Z,99794.91
2019-01-16T20:34:29.981Z,99787.95
2019-01-16T20:37:14.934Z,99792.27
2019-01-16T20:39:50.957Z,99796.23
2019-01-16T20:42:32.829Z,99813.08
2019-01-16T20:45:14.929Z,99799.88
2019-01-16T20:47:56.894Z,99792.27
2019-01-16T20:50:27.079Z,99797.55
2019-01-16T20:53:00.075Z,99781.36
2019-01-16T20:55:30.370Z,99802.52
2019-01-16T20:58:03.452Z,99809.63
2019-01-16T21:00:49.605Z,99800.22
2019-01-16T21:03:31.919Z,99805.48
2019-01-16T21:06:02.184Z,99780.54
2019-01-16T21:08:41.263Z,99784.33
2019-01-16T21:11:11.388Z,99787.80
2019-01-16T21:13:47.782Z,99784.03
2019-01-16T21:16:20.794Z,99782.86
2019-01-16T21:18:53.894Z,99759.53
2019-01-16T21:21:38.926Z,99772.29
2019-01-16T21:24:15.205Z,99765.17
2019-01-16T21:26:54.665Z,99766.49
2019-01-16T21:29:25.145Z,99759.22
2019-01-16T21:31:55.399Z,99749.33
2019-01-16T21:34:25.710Z,99743.69
2019-01-16T21:36:56.874Z,99742.38
2019-01-16T21:39:27.098Z,99740.56
2019-01-16T21:42:00.268Z,99741.87
2019-01-16T21:44:33.592Z,99726.37
2019-01-16T21:47:21.460Z,99723.55
2019-01-16T21:49:54.914Z,99729.34
2019-01-16T21:52:25.259Z,99731.81
2019-01-16T21:54:55.586Z,99724.89
2019-01-16T21:57:25.803Z,99726.20
2019-01-16T22:00:01.784Z,99716.94
2019-01-16T22:02:50.101Z,99714.62
2019-01-16T22:05:26.239Z,99707.05
2019-01-16T22:08:12.574Z,99706.72
2019-01-16T22:10:57.814Z,99706.72
2019-01-16T22:13:30.681Z,99687.87
2019-01-16T22:16:17.310Z,99679.63
2019-01-16T22:18:56.622Z,99676.98
2019-01-16T22:21:44.645Z,99686.58
2019-01-16T22:24:17.436Z,99690.70
2019-01-16T22:26:50.484Z,99672.38
2019-01-16T22:29:26.266Z,99675.66
2019-01-16T22:31:58.938Z,99681.77
2019-01-16T22:34:45.727Z,99678.30
2019-01-16T22:37:18.655Z,99671.68
2019-01-16T22:39:54.776Z,99656.51
2019-01-16T22:42:27.524Z,99661.47
2019-01-16T22:45:03.139Z,99658.16
2019-01-16T22:47:33.599Z,99653.20
2019-01-16T22:50:19.450Z,99652.53
2019-01-16T22:53:05.769Z,99647.59
2019-01-16T22:55:47.851Z,99636.03
2019-01-16T22:58:26.947Z,99629.28
2019-01-16T23:01:09.558Z,99623.01
2019-01-16T23:03:57.727Z,99616.23
2019-01-16T23:06:43.875Z,99609.64
2019-01-16T23:09:29.884Z,99596.11
2019-01-16T23:12:02.898Z,99596.45
2019-01-16T23:14:44.934Z,99608.30
2019-01-16T23:17:31.505Z,99593.62
2019-01-16T23:20:11.013Z,99575.98
2019-01-16T23:22:41.470Z,99585.70
2019-01-16T23:25:17.970Z,99575.95
2019-01-16T23:28:04.404Z,99567.07
2019-01-16T23:30:40.525Z,99570.03
2019-01-16T23:33:11.871Z,99569.84
2019-01-16T23:35:54.142Z,99568.20
2019-01-16T23:38:30.104Z,99553.53
2019-01-16T23:41:18.452Z,99556.49
2019-01-16T23:43:51.272Z,99548.40
2019-01-16T23:46:24.498Z,99554.83
2019-01-16T23:49:09.845Z,99554.84
2019-01-16T23:51:42.683Z,99550.55
2019-01-16T23:54:12.805Z,99550.20
2019-01-16T23:56:57.562Z,99538.83
2019-01-16T23:59:30.428Z,99523.34
